Lewis Station, Missouri
Current Conditions -  °F | °C
As of 9:55 PM on Saturday 22 Nov 2014 (Local Time) from KGLY Reporting Station
Clear Clear  
Wind Chill: 52°   Ceiling: Unl
Heat Index: 52°   Visibility: 10mi
Dew Point: 52°   Wind: 7mph
Humidity: 100%   Direction: 160°SSE
Pressure: 29.79"   Gusts: NA
Location:  38.5092°N, 93.6699°W
Report Text: KGLY 230355Z AUTO 16006KT 10SM CLR 11/11 A2979 RMK AO2
Loading
Personal Weather Stations






























Interactive Weather Map New forecast layout! Learn more

10-Day Weather Forecast

Advertisements
Track Severe Weather on mobile